Flight Track Log - Related Links

Times and Time Zones

All times are in EDT time to prevent confusion due to time zone crossing. See the NRL950 flight status page for this flight to view local times or setup timezone preferences in your user account.

Time Position Orientation Groundspeed Altitude Reporting Facility
EDT Latitude Longitude Course Direction KTS MPH feet Rate Location/Type
Wed 10:12:00 AM 49.4381 -78.6231 337° Northwest  Level FlightAware Approximate
Wed 10:13:00 AM 49.5404 -78.6890 337° Northwest  Level FlightAware Approximate
Wed 10:13:08 AM 48.5833 -77.7667 338° Northwest 310 357 15,000  Level Montreal Center
Wed 10:14:00 AM 49.6424 -78.7560 337° Northwest  Level FlightAware Approximate
Wed 10:14:08 AM 48.6667 -77.8000 345° North 330 380 16,400  Level Montreal Center
Wed 10:15:00 AM 49.7447 -78.8223 338° Northwest  Level FlightAware Approximate
Wed 10:15:08 AM 48.7667 -77.8833 331° Northwest 350 403 18,000  Level Montreal Center
Wed 10:16:00 AM 49.8472 -78.8876 338° Northwest  Level FlightAware Approximate
Wed 10:16:08 AM 48.8500 -77.9333 338° Northwest 350 403 19,400  Level Montreal Center
Wed 10:17:00 AM 49.9483 -78.9583 335° Northwest  Level FlightAware Approximate
Wed 10:17:08 AM 48.9500 -77.9833 342° North 370 426 20,700  Level Montreal Center
Wed 10:18:00 AM 50.0486 -79.0310 338° Northwest  Level FlightAware Approximate
Wed 10:18:08 AM 49.0500 -78.0667 331° Northwest 370 426 22,000  Level Montreal Center
Wed 10:19:08 AM 49.1167 -78.1167 334° Northwest 340 391 23,300 1,200 Climbing Montreal Center
Wed 10:20:08 AM 49.2333 -78.2000 335° Northwest 400 460 24,400 1,050 Climbing Montreal Center
Wed 10:21:08 AM 49.3333 -78.2667 337° Northwest 390 449 25,400 1,100 Climbing Montreal Center
Wed 10:22:08 AM 49.4333 -78.3167 342° North 360 414 26,600 1,000 Climbing Montreal Center
Wed 10:23:08 AM 49.5333 -78.4000 332° Northwest 400 460 27,400 800 Climbing Montreal Center
Wed 10:24:08 AM 49.6500 -78.4833 335° Northwest 410 472 28,200 850 Climbing Montreal Center
Wed 10:25:08 AM 49.7500 -78.5500 337° Northwest 400 460 29,100 900 Climbing Montreal Center
Wed 10:26:08 AM 49.8500 -78.6333 332° Northwest 410 472 30,000 900 Climbing Montreal Center
Wed 10:27:08 AM 49.9500 -78.6833 342° North 430 495 30,900 850 Climbing Montreal Center
Wed 10:28:08 AM 50.0667 -78.7667 335° Northwest 400 460 31,700 500 Climbing Montreal Center
Wed 10:29:08 AM 50.1500 -78.8500 327° Northwest 400 460 31,900 100 Climbing Montreal Center
Wed 10:30:08 AM 50.2500 -78.9167 337° Northwest 410 472 31,900  Level Montreal Center
Wed 10:31:08 AM 50.3667 -79.0000 336° Northwest 420 483 31,900  Level Montreal Center
Wed 10:32:08 AM 50.4667 -79.0667 337° Northwest 400 460 31,900  Level Montreal Center
Wed 10:33:08 AM 50.5833 -79.1500 336° Northwest 430 495 31,900  Level Montreal Center
Wed 10:34:08 AM 50.6833 -79.2333 332° Northwest 420 483 31,900  Level Montreal Center
Wed 10:35:08 AM 50.7833 -79.3000 337° Northwest 410 472 31,900  Level Montreal Center
Wed 10:36:08 AM 50.9000 -79.3833 336° Northwest 420 483 31,900  Level Montreal Center
Wed 10:37:08 AM 51.0000 -79.4667 332° Northwest 420 483 31,900  Level Montreal Center
Wed 10:38:08 AM 51.1167 -79.5333 340° North 420 483 31,900  Level Montreal Center
Wed 10:39:08 AM 51.2167 -79.6167 332° Northwest 410 472 31,900  Level Montreal Center
Wed 10:40:08 AM 51.3333 -79.7167 332° Northwest 410 472 31,900  Level Montreal Center
Wed 10:41:08 AM 51.4333 -79.7667 343° North 410 472 31,900  Level Montreal Center
Wed 10:42:08 AM 51.5333 -79.8667 328° Northwest 420 483 31,900  Level Montreal Center
Wed 10:43:08 AM 51.6333 -79.9333 338° Northwest 420 483 31,900  Level Montreal Center
Wed 10:44:08 AM 51.7333 -80.0167 333° Northwest 420 483 31,900  Level Montreal Center
Wed 10:45:08 AM 51.8333 -80.1000 333° Northwest 410 472 31,900  Level Montreal Center
Wed 10:46:08 AM 51.9500 -80.2000 332° Northwest 420 483 31,900  Level Montreal Center
Wed 10:47:08 AM 52.0500 -80.2667 338° Northwest 410 472 31,900  Level Montreal Center
Wed 10:48:08 AM 52.1667 -80.3500 336° Northwest 410 472 31,900  Level Montreal Center
Wed 10:49:08 AM 52.2667 -80.4167 338° Northwest 420 483 31,900  Level Montreal Center
Wed 10:50:08 AM 52.3667 -80.5167 329° Northwest 420 483 31,900  Level Montreal Center
Wed 10:51:08 AM 52.4833 -80.6167 332° Northwest 420 483 31,900  Level Montreal Center
Wed 10:52:08 AM 52.5833 -80.6833 338° Northwest 430 495 31,900  Level Montreal Center
Wed 10:53:08 AM 52.6833 -80.7667 333° Northwest 420 483 31,900  Level Montreal Center
Wed 10:54:08 AM 52.8000 -80.8667 333° Northwest 420 483 31,900  Level Montreal Center
Wed 10:55:08 AM 52.9000 -80.9333 338° Northwest 420 483 31,900  Level Montreal Center
Wed 10:56:08 AM 53.0167 -81.0333 333° Northwest 430 495 31,900  Level Montreal Center
Wed 10:57:08 AM 53.1167 -81.1333 329° Northwest 420 483 31,900  Level Montreal Center
Wed 10:58:08 AM 53.2167 -81.2167 333° Northwest 420 483 31,900  Level Montreal Center
Wed 10:59:08 AM 53.3000 -81.3167 324° Northwest 420 483 31,900  Level Montreal Center
Wed 11:00:08 AM 53.4167 -81.4167 333° Northwest 420 483 31,900  Level Montreal Center
Wed 11:01:08 AM 53.5167 -81.5167 329° Northwest 420 483 31,900  Level Montreal Center
Wed 11:02:08 AM 53.6167 -81.6167 329° Northwest 410 472 31,900  Level Montreal Center
Wed 11:03:08 AM 53.7167 -81.7167 329° Northwest 410 472 31,900  Level Montreal Center
Wed 11:04:08 AM 53.8000 -81.8167 325° Northwest 410 472 31,900  Level Montreal Center
Wed 11:05:08 AM 53.9000 -81.9167 330° Northwest 410 472 31,900  Level Montreal Center
Wed 11:06:08 AM 54.0167 -82.0167 333° Northwest 410 472 31,900  Level Montreal Center
Wed 11:07:08 AM 54.1167 -82.1167 330° Northwest 410 472 31,900  Level Montreal Center
Wed 11:08:08 AM 54.2000 -82.2167 325° Northwest 410 472 31,900  Level Montreal Center
Wed 11:09:08 AM 54.3000 -82.3167 330° Northwest 410 472 31,900  Level Montreal Center
Wed 11:10:08 AM 54.4000 -82.4167 330° Northwest 410 472 31,900  Level Montreal Center
Wed 11:11:08 AM 54.5167 -82.5167 334° Northwest 410 472 31,900  Level Montreal Center
Wed 11:12:08 AM 54.6000 -82.6333 321° Northwest 410 472 31,900  Level Montreal Center
Wed 11:13:08 AM 54.7000 -82.7000 339° North 410 472 31,900  Level Montreal Center
Wed 11:14:08 AM 54.8000 -82.8000 330° Northwest 400 460 31,900  Level Montreal Center
Wed 11:15:08 AM 54.9000 -82.9167 326° Northwest 410 472 31,900  Level Montreal Center
Wed 11:16:08 AM 54.9833 -83.0167 325° Northwest 410 472 31,900  Level Montreal Center
Wed 11:17:08 AM 55.1000 -83.1167 334° Northwest 410 472 31,900  Level Montreal Center
Wed 11:18:08 AM 55.2000 -83.2000 335° Northwest 410 472 31,900  Level Montreal Center
Wed 11:19:08 AM 55.3167 -83.3000 334° Northwest 420 483 31,900  Level Montreal Center
Wed 11:20:08 AM 55.4000 -83.4167 322° Northwest 420 483 31,900  Level Montreal Center
Wed 11:21:08 AM 55.5167 -83.5167 334° Northwest 420 483 31,900 50 Level Montreal Center
Wed 11:22:08 AM 55.6167 -83.6000 335° Northwest 420 483 32,000  Climbing Montreal Center
Wed 11:23:08 AM 55.7167 -83.7167 327° Northwest 410 472 31,900 -50 Descending Montreal Center
Wed 11:24:08 AM 55.8000 -83.8167 326° Northwest 410 472 31,900  Level Montreal Center
Wed 11:25:32 AM 55.9333 -83.8000 North 410 472 31,900  Level Edmonton Center
Wed 11:26:32 AM 56.0167 -83.9167 322° Northwest 410 472 31,900  Level Edmonton Center
Wed 11:27:32 AM 56.1000 -84.0167 326° Northwest 400 460 31,900  Level Edmonton Center
Wed 11:29:00 AM 56.2416 -84.1574 331° Northwest  Level FlightAware Approximate
Wed 11:36:00 AM 56.9187 -84.8308 332° Northwest  Level FlightAware Approximate
Wed 11:37:00 AM 57.0154 -84.9283 331° Northwest  Level FlightAware Approximate
Wed 11:38:00 AM 57.1120 -85.0262 331° Northwest  Level FlightAware Approximate
Wed 11:39:00 AM 57.2085 -85.1247 331° Northwest  Level FlightAware Approximate
Wed 11:40:00 AM 57.3049 -85.2237 331° Northwest  Level FlightAware Approximate
Wed 11:41:00 AM 57.4013 -85.3233 331° Northwest  Level FlightAware Approximate
Wed 11:42:00 AM 57.4976 -85.4233 331° Northwest  Level FlightAware Approximate
Wed 11:43:00 AM 57.5938 -85.5239 331° Northwest  Level FlightAware Approximate
Wed 11:44:00 AM 57.6899 -85.6250 331° Northwest  Level FlightAware Approximate
Wed 11:45:00 AM 57.7859 -85.7267 331° Northwest  Level FlightAware Approximate
Wed 11:46:00 AM 57.8819 -85.8289 330° Northwest  Level FlightAware Approximate
Wed 11:47:00 AM 57.9778 -85.9316 330° Northwest  Level FlightAware Approximate
Wed 11:48:00 AM 58.0736 -86.0349 330° Northwest  Level FlightAware Approximate
Wed 11:49:00 AM 58.1693 -86.1388 330° Northwest  Level FlightAware Approximate
Wed 11:50:00 AM 58.2649 -86.2432 330° Northwest  Level FlightAware Approximate
Wed 11:51:00 AM 58.3605 -86.3482 330° Northwest  Level FlightAware Approximate
Wed 11:52:00 AM 58.4559 -86.4537 330° Northwest  Level FlightAware Approximate
Wed 11:53:00 AM 58.5513 -86.5598 330° Northwest  Level FlightAware Approximate
Wed 11:54:00 AM 58.6465 -86.6665 330° Northwest  Level FlightAware Approximate
Wed 11:55:00 AM 58.7417 -86.7738 330° Northwest  Level FlightAware Approximate
Wed 11:56:00 AM 58.8368 -86.8817 330° Northwest  Level FlightAware Approximate
Wed 11:57:00 AM 58.9319 -86.9901 330° Northwest  Level FlightAware Approximate
Wed 11:58:00 AM 59.0268 -87.0992 329° Northwest  Level FlightAware Approximate
Wed 11:59:00 AM 59.1216 -87.2089 329° Northwest  Level FlightAware Approximate
Wed 12:00:00 PM 59.2163 -87.3192 329° Northwest  Level FlightAware Approximate
Wed 12:01:00 PM 59.3110 -87.4300 329° Northwest  Level FlightAware Approximate
Wed 12:02:00 PM 59.4055 -87.5415 329° Northwest  Level FlightAware Approximate
Wed 12:03:00 PM 59.5000 -87.6537 329° Northwest  Level FlightAware Approximate
Wed 12:04:00 PM 59.5943 -87.7664 329° Northwest  Level FlightAware Approximate
Wed 12:05:00 PM 59.6885 -87.8802 328° Northwest  Level FlightAware Approximate
Wed 12:06:00 PM 59.7823 -87.9953 328° Northwest  Level FlightAware Approximate
Wed 12:07:00 PM 59.8761 -88.1109 328° Northwest  Level FlightAware Approximate
Wed 12:08:00 PM 59.9697 -88.2272 328° Northwest  Level FlightAware Approximate
Wed 12:09:00 PM 60.0633 -88.3442 328° Northwest  Level FlightAware Approximate
Wed 12:10:00 PM 60.1567 -88.4619 328° Northwest  Level FlightAware Approximate
Wed 12:11:00 PM 60.2500 -88.5802 328° Northwest  Level FlightAware Approximate
Wed 12:12:00 PM 60.3433 -88.6992 328° Northwest  Level FlightAware Approximate
Wed 12:13:00 PM 60.4364 -88.8188 328° Northwest  Level FlightAware Approximate
Wed 12:14:00 PM 60.5294 -88.9392 328° Northwest  Level FlightAware Approximate
Wed 12:15:00 PM 60.6223 -89.0602 327° Northwest  Level FlightAware Approximate
Wed 12:16:00 PM 60.7151 -89.1820 327° Northwest  Level FlightAware Approximate
Wed 12:17:00 PM 60.8080 -89.3038 328° Northwest  Level FlightAware Approximate
Wed 12:18:00 PM 60.9010 -89.4257 328° Northwest  Level FlightAware Approximate
Wed 12:19:00 PM 60.9939 -89.5482 327° Northwest  Level FlightAware Approximate
Wed 12:20:00 PM 61.0867 -89.6714 327° Northwest  Level FlightAware Approximate
Wed 12:21:00 PM 61.1793 -89.7953 327° Northwest  Level FlightAware Approximate
Wed 12:22:00 PM 61.2719 -89.9200 327° Northwest  Level FlightAware Approximate
Wed 12:23:00 PM 61.3643 -90.0454 327° Northwest  Level FlightAware Approximate
Wed 12:24:00 PM 61.4567 -90.1716 327° Northwest  Level FlightAware Approximate
Wed 12:25:00 PM 61.5489 -90.2985 327° Northwest  Level FlightAware Approximate
Wed 12:26:00 PM 61.6410 -90.4262 327° Northwest  Level FlightAware Approximate
Wed 12:27:00 PM 61.7329 -90.5546 327° Northwest  Level FlightAware Approximate
Wed 12:28:00 PM 61.8248 -90.6838 326° Northwest  Level FlightAware Approximate
Wed 12:29:00 PM 61.9169 -90.8126 327° Northwest  Level FlightAware Approximate
Wed 12:30:00 PM 62.0095 -90.9401 327° Northwest  Level FlightAware Approximate
Wed 12:31:00 PM 62.1010 -91.0716 326° Northwest  Level FlightAware Approximate
Wed 12:32:00 PM 62.1922 -91.2042 326° Northwest  Level FlightAware Approximate
Wed 12:33:00 PM 62.2834 -91.3376 326° Northwest  Level FlightAware Approximate
Wed 12:34:00 PM 62.3744 -91.4718 326° Northwest  Level FlightAware Approximate
Wed 12:35:00 PM 62.4653 -91.6068 326° Northwest  Level FlightAware Approximate
Wed 12:36:00 PM 62.5560 -91.7427 325° Northwest  Level FlightAware Approximate
Wed 12:37:00 PM 62.6466 -91.8794 325° Northwest  Level FlightAware Approximate
Wed 12:38:00 PM 62.7371 -92.0169 325° Northwest  Level FlightAware Approximate
Wed 12:39:00 PM 62.8275 -92.1553 325° Northwest  Level FlightAware Approximate
Wed 12:40:00 PM 62.9177 -92.2945 325° Northwest  Level FlightAware Approximate
Wed 12:41:00 PM 63.0078 -92.4346 325° Northwest  Level FlightAware Approximate
Wed 12:42:00 PM 63.0977 -92.5755 325° Northwest  Level FlightAware Approximate
Wed 12:43:00 PM 63.1875 -92.7173 325° Northwest  Level FlightAware Approximate
Wed 12:44:00 PM 63.2772 -92.8601 324° Northwest  Level FlightAware Approximate
Wed 12:45:00 PM 63.3663 -93.0047 323° Northwest  Level FlightAware Approximate
Wed 12:46:00 PM 63.4548 -93.1521 323° Northwest  Level FlightAware Approximate
Wed 12:47:00 PM 63.5453 -93.2930 326° Northwest  Level FlightAware Approximate
Wed 12:48:00 PM 63.6340 -93.4406 323° Northwest  Level FlightAware Approximate
Wed 12:49:00 PM 63.7223 -93.5896 323° Northwest  Level FlightAware Approximate
Wed 12:50:00 PM 63.8105 -93.7395 323° Northwest  Level FlightAware Approximate
Wed 12:51:00 PM 63.8975 -93.8934 322° Northwest  Level FlightAware Approximate
Wed 12:52:00 PM 63.9843 -94.0484 322° Northwest  Level FlightAware Approximate
Wed 12:53:00 PM 64.0716 -94.2024 324° Northwest  Level FlightAware Approximate
Wed 12:54:00 PM 64.1609 -94.3507 324° Northwest  Level FlightAware Approximate
Wed 12:55:00 PM 64.2500 -94.5001 319° Northwest  Level FlightAware Approximate
Wed 12:56:00 PM 64.3335 -94.6662 319° Northwest  Level FlightAware Approximate
Wed 12:57:00 PM 64.4168 -94.8334 319° Northwest  Level FlightAware Approximate
Wed 12:58:00 PM 64.4984 -95.0057 317° Northwest  Level FlightAware Approximate
Wed 12:59:00 PM 64.5804 -95.1771 320° Northwest  Level FlightAware Approximate
Wed 01:00:00 PM 64.6642 -95.3445 320° Northwest  Level FlightAware Approximate
Wed 01:01:00 PM 64.7489 -95.5101 321° Northwest  Level FlightAware Approximate
Wed 01:02:00 PM 64.8350 -95.6718 321° Northwest  Level FlightAware Approximate
Wed 01:03:00 PM 64.9118 -95.8570 320° Northwest  Level FlightAware Approximate
Wed 01:04:00 PM 64.9960 -96.0253 320° Northwest  Level FlightAware Approximate
Wed 01:05:00 PM 65.0167 -96.0667 320° Northwest  Level FlightAware Approximate
Wed 01:06:00 PM 65.0167 -96.0667 320° Northwest  Level FlightAware Approximate
Wed 01:07:00 PM 65.0167 -96.0667 320° Northwest  Level FlightAware Approximate
Wed 01:08:00 PM 65.0167 -96.0667 320° Northwest  Level FlightAware Approximate
Wed 01:09:00 PM 65.0167 -96.0667 320° Northwest  Level FlightAware Approximate
Wed 01:10:00 PM 65.0167 -96.0667 320° Northwest  Level FlightAware Approximate
Wed 01:11:00 PM 65.0167 -96.0667 320° Northwest  Level FlightAware Approximate
Wed 01:12:00 PM 65.0167 -96.0667 320° Northwest  Level FlightAware Approximate
Wed 01:13:00 PM 65.0167 -96.0667 320° Northwest  Level FlightAware Approximate
Wed 01:14:00 PM 65.0167 -96.0667 320° Northwest  Level FlightAware Approximate
Wed 01:15:00 PM 65.0167 -96.0667 320° Northwest  Level FlightAware Approximate
Wed 01:16:00 PM 65.0167 -96.0667 320° Northwest  Level FlightAware Approximate
Wed 01:17:00 PM 65.0167 -96.0667 320° Northwest  Level FlightAware Approximate
Wed 01:18:00 PM 65.0167 -96.0667 320° Northwest  Level FlightAware Approximate

Login

Don't have an account? Register now (free) for customized features, flight alerts, and more!